You are not logged in, Click here to log in
ICAO: PKMJ Country: 馬紹爾群島首都馬朱羅
Latitude: 7.06519 Longitude: 171.273
Total Arrivals: 4 Total Departures: 4
Latest Arrival: FS05 (NGTA-PKMJ)CHANG SHENG. HSIUNG Latest Departure: FS06 (PKMJ-ANYN)CHANG SHENG. HSIUNG
Scenery:
METAR : PKMJ 241052Z 07008KT 15SM FEW015 SCT050 BKN300 28/25 A2989

馬紹爾群島國際機場MAJ